createdAt,value
2022-11-23T00:00:06.809Z,5.90
2022-11-23T00:02:33.565Z,5.90
2022-11-23T00:05:00.228Z,5.90
2022-11-23T00:07:26.947Z,5.90
2022-11-23T00:09:53.628Z,5.90
2022-11-23T00:12:20.358Z,5.90
2022-11-23T00:14:46.938Z,5.90
2022-11-23T00:17:13.534Z,5.90
2022-11-23T00:19:40.107Z,5.80
2022-11-23T00:22:06.932Z,5.90
2022-11-23T00:24:33.603Z,5.80
2022-11-23T00:27:00.242Z,5.80
2022-11-23T00:29:27.441Z,5.80
2022-11-23T00:31:54.072Z,5.80
2022-11-23T00:34:20.641Z,5.80
2022-11-23T00:36:47.248Z,5.80
2022-11-23T00:39:13.855Z,5.80
2022-11-23T00:41:40.533Z,5.90
2022-11-23T00:44:07.804Z,5.90
2022-11-23T00:46:34.375Z,5.90
2022-11-23T00:49:01.683Z,5.90
2022-11-23T00:51:33.400Z,5.90
2022-11-23T00:54:00.773Z,5.90
2022-11-23T00:56:28.458Z,5.80
2022-11-23T00:58:57.137Z,5.90
2022-11-23T01:01:26.266Z,5.90
2022-11-23T01:03:55.501Z,5.90
2022-11-23T01:06:24.922Z,5.90
2022-11-23T01:08:56.979Z,5.90
2022-11-23T01:11:25.891Z,5.90
2022-11-23T01:13:52.852Z,5.90
2022-11-23T01:16:25.303Z,5.90
2022-11-23T01:18:53.446Z,5.90
2022-11-23T01:21:20.102Z,5.90
2022-11-23T01:23:46.802Z,5.90
2022-11-23T01:26:13.556Z,5.90
2022-11-23T01:28:40.815Z,5.90
2022-11-23T01:31:10.876Z,5.90
2022-11-23T01:33:38.254Z,5.90
2022-11-23T01:36:13.057Z,5.90
2022-11-23T01:38:40.946Z,5.80
2022-11-23T01:41:10.880Z,5.90
2022-11-23T01:43:37.713Z,5.90
2022-11-23T01:46:05.635Z,5.90
2022-11-23T01:48:44.075Z,5.90
2022-11-23T01:51:15.090Z,5.90
2022-11-23T01:53:42.876Z,5.90
2022-11-23T01:56:14.205Z,5.80
2022-11-23T01:58:44.905Z,5.80
2022-11-23T02:01:12.149Z,5.80
2022-11-23T02:03:40.378Z,5.80
2022-11-23T02:06:13.376Z,5.80
2022-11-23T02:08:40.042Z,5.80
2022-11-23T02:11:06.906Z,5.80
2022-11-23T02:13:33.641Z,5.80
2022-11-23T02:16:00.364Z,5.80
2022-11-23T02:18:30.378Z,5.80
2022-11-23T02:20:59.550Z,5.80
2022-11-23T02:23:44.938Z,5.90
2022-11-23T02:26:16.534Z,5.90
2022-11-23T02:28:50.404Z,5.80
2022-11-23T02:31:16.999Z,5.80
2022-11-23T02:33:43.914Z,5.80
2022-11-23T02:36:34.804Z,5.90
2022-11-23T02:39:06.653Z,5.90
2022-11-23T02:41:45.933Z,5.90
2022-11-23T02:44:31.094Z,5.90
2022-11-23T02:46:58.469Z,5.90
2022-11-23T02:49:25.307Z,5.90
2022-11-23T02:51:52.719Z,5.90
2022-11-23T02:54:20.075Z,5.90
2022-11-23T02:56:46.757Z,5.90
2022-11-23T02:59:13.410Z,5.90
2022-11-23T03:01:40.391Z,6.00
2022-11-23T03:04:07.653Z,6.00
2022-11-23T03:06:34.375Z,6.00
2022-11-23T03:09:01.015Z,6.00
2022-11-23T03:11:27.788Z,6.00
2022-11-23T03:13:54.410Z,6.00
2022-11-23T03:16:21.357Z,6.00
2022-11-23T03:18:47.942Z,6.00
2022-11-23T03:21:14.828Z,6.00
2022-11-23T03:23:41.444Z,6.00
2022-11-23T03:26:12.717Z,6.00
2022-11-23T03:28:40.127Z,6.00
2022-11-23T03:31:06.812Z,6.10
2022-11-23T03:33:33.837Z,6.00
2022-11-23T03:36:00.900Z,6.10
2022-11-23T03:38:27.528Z,6.10
2022-11-23T03:40:54.323Z,6.00
2022-11-23T03:43:21.461Z,6.10
2022-11-23T03:45:48.705Z,6.00
2022-11-23T03:48:16.043Z,6.00
2022-11-23T03:50:43.812Z,6.00
2022-11-23T03:53:10.645Z,6.00
2022-11-23T03:55:37.393Z,6.00
2022-11-23T03:58:04.117Z,6.00
2022-11-23T04:00:31.318Z,6.00
2022-11-23T04:02:57.965Z,6.00
2022-11-23T04:05:24.794Z,6.00
2022-11-23T04:07:51.542Z,6.00
2022-11-23T04:10:19.466Z,6.00
2022-11-23T04:12:46.237Z,6.00
2022-11-23T04:15:12.828Z,6.10
2022-11-23T04:17:39.467Z,6.10
2022-11-23T04:20:06.870Z,6.10
2022-11-23T04:22:33.692Z,6.10
2022-11-23T04:25:00.298Z,6.00
2022-11-23T04:27:26.966Z,6.10
2022-11-23T04:29:53.620Z,6.10
2022-11-23T04:32:20.430Z,6.10
2022-11-23T04:34:47.047Z,6.10
2022-11-23T04:37:13.841Z,6.00
2022-11-23T04:39:40.545Z,6.10
2022-11-23T04:42:07.195Z,6.00
2022-11-23T04:44:33.798Z,6.10
2022-11-23T04:47:00.496Z,6.10
2022-11-23T04:49:27.160Z,6.10
2022-11-23T04:51:54.188Z,6.10
2022-11-23T04:54:20.818Z,6.00
2022-11-23T04:56:47.414Z,6.00
2022-11-23T04:59:14.120Z,6.00
2022-11-23T05:01:40.874Z,6.00
2022-11-23T05:04:07.721Z,6.00
2022-11-23T05:06:34.333Z,6.00
2022-11-23T05:09:00.938Z,6.00
2022-11-23T05:11:27.558Z,6.00
2022-11-23T05:13:54.232Z,6.00
2022-11-23T05:16:20.844Z,6.00
2022-11-23T05:18:47.412Z,6.00
2022-11-23T05:21:14.129Z,6.00
2022-11-23T05:23:40.744Z,6.00
2022-11-23T05:26:07.419Z,5.90
2022-11-23T05:28:41.879Z,5.90
2022-11-23T05:31:09.230Z,6.00
2022-11-23T05:33:36.355Z,6.00
2022-11-23T05:36:03.515Z,6.00
2022-11-23T05:38:30.092Z,6.00
2022-11-23T05:40:56.702Z,6.00
2022-11-23T05:43:23.321Z,5.90
2022-11-23T05:45:50.038Z,5.90
2022-11-23T05:48:16.860Z,5.90
2022-11-23T05:50:43.628Z,5.90
2022-11-23T05:53:10.370Z,5.90
2022-11-23T05:55:37.111Z,5.90
2022-11-23T05:58:03.891Z,5.90
2022-11-23T06:00:30.687Z,5.90
2022-11-23T06:03:01.536Z,5.90
2022-11-23T06:05:28.954Z,5.90
2022-11-23T06:07:56.156Z,5.90
2022-11-23T06:10:23.495Z,5.90
2022-11-23T06:12:50.326Z,6.00
2022-11-23T06:15:17.218Z,6.00
2022-11-23T06:17:43.907Z,6.00
2022-11-23T06:20:10.768Z,6.00
2022-11-23T06:22:37.408Z,5.90
2022-11-23T06:25:04.161Z,5.90
2022-11-23T06:27:30.852Z,6.00
2022-11-23T06:29:57.620Z,5.90
2022-11-23T06:32:24.265Z,5.90
2022-11-23T06:34:50.896Z,6.00
2022-11-23T06:37:17.638Z,6.00
2022-11-23T06:39:44.716Z,5.90
2022-11-23T06:44:59.381Z,6.00
2022-11-23T06:47:27.584Z,6.00
2022-11-23T06:49:54.282Z,6.00
2022-11-23T06:52:21.036Z,6.00
2022-11-23T06:54:47.672Z,6.00
2022-11-23T06:57:14.333Z,6.00
2022-11-23T06:59:44.762Z,6.00
2022-11-23T07:02:12.563Z,6.00
2022-11-23T07:04:39.181Z,6.00
2022-11-23T07:07:07.957Z,6.00
2022-11-23T07:09:35.140Z,6.00
2022-11-23T07:12:01.889Z,6.10
2022-11-23T07:14:28.582Z,6.10
2022-11-23T07:16:55.290Z,6.10
2022-11-23T07:19:21.837Z,6.10
2022-11-23T07:21:48.477Z,6.10
2022-11-23T07:24:15.059Z,6.20
2022-11-23T07:26:41.748Z,6.20
2022-11-23T07:29:08.379Z,6.20
2022-11-23T07:31:35.017Z,6.20
2022-11-23T07:34:01.664Z,6.20
2022-11-23T07:36:28.404Z,6.20
2022-11-23T07:38:54.998Z,6.20
2022-11-23T07:41:21.991Z,6.20
2022-11-23T07:43:48.568Z,6.30
2022-11-23T07:46:15.192Z,6.30
2022-11-23T07:48:41.785Z,6.30
2022-11-23T07:51:08.486Z,6.30
2022-11-23T07:53:36.345Z,6.20
2022-11-23T07:56:03.593Z,6.30
2022-11-23T07:58:32.547Z,6.30
2022-11-23T08:00:59.593Z,6.30
2022-11-23T08:03:28.264Z,6.20
2022-11-23T08:05:55.774Z,6.30
2022-11-23T08:08:22.580Z,6.20
2022-11-23T08:10:53.379Z,6.20
2022-11-23T08:13:21.782Z,6.20
2022-11-23T08:15:54.468Z,6.30
2022-11-23T08:18:23.204Z,6.20
2022-11-23T08:20:50.102Z,6.30
2022-11-23T08:23:16.699Z,6.20
2022-11-23T08:25:43.320Z,6.30
2022-11-23T08:28:10.598Z,6.30
2022-11-23T08:30:37.955Z,6.20
2022-11-23T08:33:06.480Z,6.20
2022-11-23T08:35:34.850Z,6.20
2022-11-23T08:38:02.034Z,6.30
2022-11-23T08:40:28.741Z,6.30
2022-11-23T08:42:55.703Z,6.30
2022-11-23T08:45:22.890Z,6.30
2022-11-23T08:47:50.907Z,6.30
2022-11-23T08:50:18.006Z,6.40
2022-11-23T08:52:44.658Z,6.40
2022-11-23T08:55:11.462Z,6.50
2022-11-23T08:57:38.514Z,6.50
2022-11-23T09:00:06.297Z,6.60
2022-11-23T09:02:33.309Z,6.60
2022-11-23T09:05:00.647Z,6.70
2022-11-23T09:07:27.341Z,6.70
2022-11-23T09:09:53.984Z,6.80
2022-11-23T09:12:20.573Z,6.90
2022-11-23T09:14:47.312Z,6.90
2022-11-23T09:17:13.949Z,6.90
2022-11-23T09:19:40.584Z,7.00
2022-11-23T09:22:07.238Z,7.00
2022-11-23T09:24:34.345Z,6.90
2022-11-23T09:27:01.159Z,6.90
2022-11-23T09:29:28.476Z,6.90
2022-11-23T09:31:55.185Z,6.90
2022-11-23T09:34:22.046Z,7.10
2022-11-23T09:36:48.799Z,7.10
2022-11-23T09:39:15.513Z,7.20
2022-11-23T09:42:05.969Z,7.10
2022-11-23T09:45:04.539Z,7.10
2022-11-23T09:47:56.146Z,7.20
2022-11-23T09:50:48.647Z,7.20
2022-11-23T09:53:24.954Z,7.10
2022-11-23T09:55:53.991Z,7.20
2022-11-23T09:58:22.428Z,7.10
2022-11-23T10:00:55.206Z,7.10
2022-11-23T10:03:21.876Z,7.20
2022-11-23T10:06:05.014Z,7.30
2022-11-23T10:09:15.336Z,7.30
2022-11-23T10:12:01.593Z,7.20
2022-11-23T10:14:54.488Z,7.30
2022-11-23T10:17:32.781Z,7.30
2022-11-23T10:20:08.962Z,7.30
2022-11-23T10:22:55.849Z,7.30
2022-11-23T10:25:24.006Z,7.30
2022-11-23T10:27:56.793Z,7.50
2022-11-23T10:30:23.402Z,7.50
2022-11-23T10:33:22.260Z,7.70
2022-11-23T10:35:48.912Z,7.80
2022-11-23T10:38:20.865Z,7.80
2022-11-23T10:41:14.005Z,7.80
2022-11-23T10:44:06.514Z,8.10
2022-11-23T10:46:37.220Z,8.20
2022-11-23T10:49:29.638Z,8.30
2022-11-23T10:52:06.932Z,8.40
2022-11-23T10:54:40.431Z,8.70
2022-11-23T10:57:44.149Z,8.80
2022-11-23T11:00:11.195Z,9.00
2022-11-23T11:02:45.193Z,8.80
2022-11-23T11:05:14.357Z,8.50
2022-11-23T11:07:41.469Z,8.40
2022-11-23T11:10:35.596Z,8.60
2022-11-23T11:13:02.716Z,8.50
2022-11-23T11:15:29.528Z,8.80
2022-11-23T11:17:57.734Z,9.20
2022-11-23T11:20:34.390Z,9.40
2022-11-23T11:23:04.801Z,9.30
2022-11-23T11:25:37.146Z,9.30
2022-11-23T11:28:35.247Z,9.30
2022-11-23T11:31:22.760Z,9.20
2022-11-23T11:34:20.838Z,9.10
2022-11-23T11:36:57.441Z,9.10
2022-11-23T11:39:40.661Z,8.80
2022-11-23T11:42:14.334Z,8.90
2022-11-23T11:44:43.865Z,8.90
2022-11-23T11:47:24.914Z,8.90
2022-11-23T11:49:56.181Z,8.80
2022-11-23T11:52:28.171Z,8.80
2022-11-23T11:55:18.339Z,8.70
2022-11-23T11:57:50.002Z,8.60
2022-11-23T12:00:20.011Z,8.50
2022-11-23T12:03:10.572Z,8.50
2022-11-23T12:05:40.448Z,8.50
2022-11-23T12:08:12.985Z,8.60
2022-11-23T12:10:42.400Z,8.70
2022-11-23T12:13:18.254Z,8.80
2022-11-23T12:15:50.158Z,8.80
2022-11-23T12:18:20.130Z,8.80
2022-11-23T12:20:55.969Z,8.90
2022-11-23T12:23:39.013Z,8.80
2022-11-23T12:26:15.899Z,8.80
2022-11-23T12:29:18.173Z,8.80
2022-11-23T12:31:52.891Z,8.80
2022-11-23T12:34:41.346Z,8.90
2022-11-23T12:37:30.519Z,8.90
2022-11-23T12:40:17.316Z,8.90
2022-11-23T12:42:55.022Z,8.90
2022-11-23T12:45:21.647Z,9.00
2022-11-23T12:48:06.229Z,9.00
2022-11-23T12:50:43.815Z,8.90
2022-11-23T12:53:27.019Z,8.90
2022-11-23T12:56:36.716Z,8.90
2022-11-23T12:59:03.845Z,8.90
2022-11-23T13:01:39.782Z,8.90
2022-11-23T13:04:36.370Z,8.80
2022-11-23T13:07:38.251Z,8.80
2022-11-23T13:10:16.015Z,8.80
2022-11-23T13:12:48.818Z,8.90
2022-11-23T13:15:48.633Z,8.90
2022-11-23T13:18:46.662Z,8.80
2022-11-23T13:21:36.238Z,8.80
2022-11-23T13:24:03.098Z,8.70
2022-11-23T13:26:31.595Z,8.70
2022-11-23T13:28:59.083Z,8.70
2022-11-23T13:31:31.613Z,8.70
2022-11-23T13:34:03.623Z,8.70
2022-11-23T13:36:56.413Z,8.70
2022-11-23T13:40:00.866Z,8.70
2022-11-23T13:42:31.076Z,8.60
2022-11-23T13:45:19.767Z,8.60
2022-11-23T13:48:08.462Z,8.50
2022-11-23T13:50:37.502Z,8.50
2022-11-23T13:53:18.906Z,8.50
2022-11-23T13:55:46.047Z,8.50
2022-11-23T13:58:22.757Z,8.50
2022-11-23T14:00:55.516Z,8.50
2022-11-23T14:03:49.101Z,8.40
2022-11-23T14:06:55.504Z,8.40
2022-11-23T14:09:29.023Z,8.40
2022-11-23T14:12:17.150Z,8.40
2022-11-23T14:14:43.794Z,8.40
2022-11-23T14:17:31.832Z,8.40
2022-11-23T14:20:26.570Z,8.40
2022-11-23T14:23:05.267Z,8.30
2022-11-23T14:25:53.724Z,8.30
2022-11-23T14:28:59.357Z,8.30
2022-11-23T14:32:13.891Z,8.30
2022-11-23T14:35:10.966Z,8.30
2022-11-23T14:37:51.864Z,8.30
2022-11-23T14:40:43.556Z,8.20
2022-11-23T14:43:16.487Z,8.20
2022-11-23T14:45:43.681Z,8.10
2022-11-23T14:48:30.576Z,8.00
2022-11-23T14:51:06.093Z,8.00
2022-11-23T14:53:45.513Z,7.90
2022-11-23T14:56:45.334Z,7.90
2022-11-23T14:59:22.958Z,7.80
2022-11-23T15:02:02.275Z,7.80
2022-11-23T15:04:36.835Z,7.70
2022-11-23T15:07:12.365Z,7.60
2022-11-23T15:09:51.559Z,7.50
2022-11-23T15:12:28.264Z,7.50
2022-11-23T15:14:59.562Z,7.40
2022-11-23T15:17:27.068Z,7.40
2022-11-23T15:20:01.128Z,7.30
2022-11-23T15:22:29.111Z,7.30
2022-11-23T15:25:06.945Z,7.20
2022-11-23T15:27:34.010Z,7.20
2022-11-23T15:30:00.772Z,7.10
2022-11-23T15:32:34.656Z,7.00
2022-11-23T15:35:08.239Z,7.00
2022-11-23T15:37:48.681Z,7.00
2022-11-23T15:40:16.686Z,7.00
2022-11-23T15:42:46.754Z,7.00
2022-11-23T15:45:41.489Z,6.90
2022-11-23T15:48:36.996Z,6.90
2022-11-23T15:51:06.252Z,6.80
2022-11-23T15:53:46.360Z,6.80
2022-11-23T15:56:26.971Z,6.70
2022-11-23T15:58:54.434Z,6.60
2022-11-23T16:01:22.043Z,6.60
2022-11-23T16:04:00.954Z,6.50
2022-11-23T16:06:39.147Z,6.50
2022-11-23T16:12:20.843Z,6.40
2022-11-23T16:14:47.610Z,6.50
2022-11-23T16:17:19.118Z,6.50
2022-11-23T16:19:56.350Z,6.40
2022-11-23T16:22:29.029Z,6.40
2022-11-23T16:25:08.855Z,6.40
2022-11-23T16:27:36.936Z,6.40
2022-11-23T16:30:04.692Z,6.40
2022-11-23T16:32:32.235Z,6.40
2022-11-23T16:35:16.839Z,6.40
2022-11-23T16:37:43.866Z,6.40
2022-11-23T16:40:11.125Z,6.50
2022-11-23T16:42:37.923Z,6.50
2022-11-23T16:45:04.987Z,6.50
2022-11-23T16:47:31.840Z,6.60
2022-11-23T16:49:58.600Z,6.70
2022-11-23T16:52:25.453Z,6.70
2022-11-23T16:54:55.251Z,6.70
2022-11-23T16:57:30.008Z,6.70
2022-11-23T16:59:58.358Z,6.80
2022-11-23T17:02:25.245Z,6.80
2022-11-23T17:04:52.027Z,6.80
2022-11-23T17:07:18.860Z,6.90
2022-11-23T17:09:45.530Z,6.90
2022-11-23T17:12:18.385Z,6.90
2022-11-23T17:14:48.412Z,6.90
2022-11-23T17:17:19.465Z,7.00
2022-11-23T17:19:48.579Z,7.00
2022-11-23T17:22:22.060Z,7.00
2022-11-23T17:24:50.231Z,7.10
2022-11-23T17:27:25.268Z,7.10
2022-11-23T17:29:57.562Z,7.20
2022-11-23T17:32:24.323Z,7.20
2022-11-23T17:34:50.895Z,7.30
2022-11-23T17:37:21.079Z,7.30
2022-11-23T17:39:48.684Z,7.30
2022-11-23T17:42:15.683Z,7.30
2022-11-23T17:44:42.707Z,7.30
2022-11-23T17:47:30.028Z,7.20
2022-11-23T17:49:57.851Z,7.10
2022-11-23T17:52:25.127Z,7.00
2022-11-23T17:54:52.117Z,6.90
2022-11-23T17:57:22.833Z,6.80
2022-11-23T17:59:50.173Z,6.80
2022-11-23T18:02:16.829Z,6.70
2022-11-23T18:04:43.549Z,6.60
2022-11-23T18:07:13.030Z,6.60
2022-11-23T18:09:40.064Z,6.60
2022-11-23T18:12:09.190Z,6.50
2022-11-23T18:14:36.289Z,6.50
2022-11-23T18:17:02.992Z,6.50
2022-11-23T18:19:29.802Z,6.50
2022-11-23T18:21:57.213Z,6.40
2022-11-23T18:24:24.055Z,6.40
2022-11-23T18:26:50.679Z,6.40
2022-11-23T18:29:17.626Z,6.30
2022-11-23T18:31:44.421Z,6.30
2022-11-23T18:34:11.300Z,6.30
2022-11-23T18:36:37.875Z,6.30
2022-11-23T18:39:04.545Z,6.30
2022-11-23T18:41:31.208Z,6.30
2022-11-23T18:43:57.873Z,6.30
2022-11-23T18:46:24.748Z,6.30
2022-11-23T18:48:51.529Z,6.30
2022-11-23T18:51:18.724Z,6.20
2022-11-23T18:53:47.604Z,6.20
2022-11-23T18:56:14.516Z,6.20
2022-11-23T18:58:42.969Z,6.20
2022-11-23T19:01:12.722Z,6.20
2022-11-23T19:03:41.239Z,6.20
2022-11-23T19:06:09.166Z,6.30
2022-11-23T19:08:40.511Z,6.30
2022-11-23T19:11:19.517Z,6.20
2022-11-23T19:13:49.354Z,6.20
2022-11-23T19:16:17.829Z,6.20
2022-11-23T19:18:45.168Z,6.20
2022-11-23T19:21:19.866Z,6.20
2022-11-23T19:23:51.476Z,6.20
2022-11-23T19:26:18.849Z,6.20
2022-11-23T19:28:45.935Z,6.20
2022-11-23T19:31:20.360Z,6.20
2022-11-23T19:33:48.338Z,6.20
2022-11-23T19:36:18.068Z,6.20
2022-11-23T19:38:44.773Z,6.20
2022-11-23T19:41:12.069Z,6.20
2022-11-23T19:43:38.889Z,6.20
2022-11-23T19:46:09.027Z,6.20
2022-11-23T19:48:35.799Z,6.20
2022-11-23T19:51:06.010Z,6.20
2022-11-23T19:53:34.996Z,6.30
2022-11-23T19:56:23.899Z,6.30
2022-11-23T19:58:52.348Z,6.30
2022-11-23T20:01:21.141Z,6.30
2022-11-23T20:03:50.692Z,6.30
2022-11-23T20:06:25.258Z,6.40
2022-11-23T20:08:56.836Z,6.30
2022-11-23T20:11:24.324Z,6.30
2022-11-23T20:13:51.320Z,6.40
2022-11-23T20:16:19.592Z,6.30
2022-11-23T20:18:49.005Z,6.30
2022-11-23T20:21:17.903Z,6.30
2022-11-23T20:23:46.330Z,6.30
2022-11-23T20:26:15.541Z,6.30
2022-11-23T20:28:43.030Z,6.30
2022-11-23T20:31:20.581Z,6.40
2022-11-23T20:33:50.506Z,6.30
2022-11-23T20:36:18.730Z,6.20
2022-11-23T20:38:45.957Z,6.20
2022-11-23T20:41:17.168Z,6.30
2022-11-23T20:43:44.848Z,6.30
2022-11-23T20:46:12.784Z,6.20
2022-11-23T20:48:40.632Z,6.20
2022-11-23T20:51:10.669Z,6.20
2022-11-23T20:53:37.545Z,6.20
2022-11-23T20:56:09.698Z,6.20
2022-11-23T20:58:37.306Z,6.20
2022-11-23T21:01:15.291Z,6.20
2022-11-23T21:03:43.271Z,6.30
2022-11-23T21:06:12.197Z,6.40
2022-11-23T21:08:42.887Z,6.30
2022-11-23T21:11:35.417Z,6.40
2022-11-23T21:14:06.201Z,6.40
2022-11-23T21:16:35.077Z,6.30
2022-11-23T21:19:03.146Z,6.30
2022-11-23T21:21:30.108Z,6.30
2022-11-23T21:23:56.772Z,6.30
2022-11-23T21:26:23.594Z,6.20
2022-11-23T21:28:50.412Z,6.30
2022-11-23T21:31:17.195Z,6.20
2022-11-23T21:33:44.334Z,6.20
2022-11-23T21:36:14.259Z,6.20
2022-11-23T21:38:41.893Z,6.20
2022-11-23T21:41:18.090Z,6.20
2022-11-23T21:43:51.458Z,6.20
2022-11-23T21:46:18.636Z,6.10
2022-11-23T21:48:45.308Z,6.10
2022-11-23T21:51:14.419Z,6.00
2022-11-23T21:53:44.754Z,6.00
2022-11-23T21:56:13.195Z,6.00
2022-11-23T21:58:41.145Z,6.00
2022-11-23T22:01:16.620Z,6.10
2022-11-23T22:03:45.780Z,6.10
2022-11-23T22:06:18.858Z,6.10
2022-11-23T22:08:52.846Z,6.10
2022-11-23T22:11:29.732Z,6.10
2022-11-23T22:13:58.497Z,6.10
2022-11-23T22:16:27.470Z,6.00
2022-11-23T22:18:56.019Z,6.00
2022-11-23T22:21:24.859Z,6.00
2022-11-23T22:23:51.759Z,6.00
2022-11-23T22:26:19.741Z,6.00
2022-11-23T22:28:49.087Z,6.00
2022-11-23T22:31:18.826Z,6.00
2022-11-23T22:33:45.940Z,6.00
2022-11-23T22:36:14.871Z,6.00
2022-11-23T22:38:41.680Z,6.00
2022-11-23T22:41:11.347Z,5.90
2022-11-23T22:43:38.022Z,6.00
2022-11-23T22:46:07.494Z,6.00
2022-11-23T22:48:42.051Z,6.00
2022-11-23T22:51:12.171Z,6.00
2022-11-23T22:53:44.593Z,5.90
2022-11-23T22:56:16.760Z,6.00
2022-11-23T22:58:44.547Z,6.00
2022-11-23T23:01:14.023Z,6.00
2022-11-23T23:03:41.029Z,6.00
2022-11-23T23:06:14.332Z,5.90
2022-11-23T23:08:40.961Z,6.00
2022-11-23T23:11:07.801Z,6.00
2022-11-23T23:13:34.758Z,6.00
2022-11-23T23:16:03.450Z,6.10
2022-11-23T23:18:31.866Z,6.00
2022-11-23T23:21:14.283Z,6.10
2022-11-23T23:23:44.259Z,6.00
2022-11-23T23:26:12.718Z,6.10
2022-11-23T23:28:40.071Z,6.00
2022-11-23T23:31:09.206Z,6.10
2022-11-23T23:33:35.908Z,6.10
2022-11-23T23:36:06.395Z,6.00
2022-11-23T23:38:33.498Z,6.10
2022-11-23T23:41:00.483Z,6.10
2022-11-23T23:43:28.611Z,6.10
2022-11-23T23:45:59.298Z,6.10
2022-11-23T23:48:29.147Z,6.00
2022-11-23T23:50:55.928Z,6.00
2022-11-23T23:53:22.634Z,6.00
2022-11-23T23:55:59.117Z,6.00
2022-11-23T23:58:26.042Z,6.00
